This is the latest recevied weather packets stored in our database for station/object WC4PEM-7. If no packets are shown the sender has not sent any weather packets the latest 10 day(s).
| Time | Temp. | Humidity | Pressure | Rain* | Wind** | Luminosity | Snow |
|---|---|---|---|---|---|---|---|
| 1777907017 | 25° C | 56% | 1017.3 hPa | 0 mm | - | - | - |
| 1777906717 | 25° C | 57% | 1017.2 hPa | 0 mm | - | - | - |
| 1777906417 | 24.44° C | 57% | 1017.4 hPa | 0 mm | - | - | - |
| 1777906117 | 24.44° C | 57% | 1017.3 hPa | 0 mm | - | - | - |
| 1777905817 | 24.44° C | 60% | 1017.1 hPa | 0 mm | - | - | - |
| 1777905814 | 24.44° C | 61% | 1017.3 hPa | 0 mm | - | - | - |
| 1777905517 | 24.44° C | 61% | 1017.3 hPa | 0 mm | - | - | - |
| 1777905397 | 23.89° C | 62% | 1017.1 hPa | 0 mm | - | - | - |
| 1777905217 | 23.89° C | 61% | 1017.3 hPa | 0 mm | - | - | - |
| 1777905085 | 23.89° C | 62% | 1017.1 hPa | 0 mm | - | - | - |
| 1777904917 | 23.89° C | 60% | 1017.3 hPa | 0 mm | - | - | - |
| 1777904617 | 23.89° C | 62% | 1017.1 hPa | 0 mm | - | - | - |
| 1777904317 | 23.89° C | 65% | 1017.1 hPa | 0 mm | - | - | - |
| 1777904017 | 23.89° C | 64% | 1017.3 hPa | 0 mm | - | - | - |
| 1777903717 | 23.89° C | 69% | 1017 hPa | 0 mm | - | - | - |
| 1777903417 | 23.33° C | 68% | 1017 hPa | 0 mm | - | - | - |
| 1777903117 | 23.33° C | 68% | 1017.1 hPa | 0 mm | - | - | - |
| 1777902817 | 23.33° C | 68% | 1017.1 hPa | 0 mm | - | - | - |
| 1777902517 | 23.33° C | 69% | 1017.1 hPa | 0 mm | - | - | - |
| 1777902217 | 23.33° C | 69% | 1017.1 hPa | 0 mm | - | - | - |
| 1777902162 | 22.78° C | 70% | 1016.8 hPa | 0 mm | - | - | - |
| 1777901917 | 22.78° C | 70% | 1016.8 hPa | 0 mm | - | - | - |
| 1777901617 | 22.78° C | 69% | 1017 hPa | 0 mm | - | - | - |
| 1777901594 | 22.78° C | 70% | 1016.9 hPa | 0 mm | - | - | - |
| 1777901317 | 22.78° C | 70% | 1016.9 hPa | 0 mm | - | - | - |
* Rain latest hour (hover to see other rain measurements)
** Current wind speed in m/s (hover to see current wind gust speed)